SVA1048 OEJN-OERK
Flight info
| Callsign | SVA1048 |
|---|---|
| Flight time | 1h 10m |
| Altitude | 41000 |
| Route | EGREP T532 ORDEM |
| Aircraft | A333/H-SDE2E3FGHIRWXY/L |
Departure
| Time | 2026-05-06 08:59 |
|---|---|
| Airport | King Abdulaziz International Airport (OEJN) |
Arrival
| Time | 2026-05-06 10:10 |
|---|---|
| Airport | King Khalid International Airport (OERK) |
| Time | Latitude | Longitude | Altitude | Speed | Heading |
|---|---|---|---|---|---|
| 2026-05-06 08:31 | 21.66853 | 39.16951 | 37 ft | 0 kts | 50° |
| 2026-05-06 08:49 | 21.66839 | 39.16931 | 37 ft | 4 kts | 54° |
| 2026-05-06 08:49 | 21.66824 | 39.16907 | 38 ft | 4 kts | 66° |
| 2026-05-06 08:50 | 21.66818 | 39.16881 | 38 ft | 4 kts | 102° |
| 2026-05-06 08:50 | 21.66824 | 39.16867 | 36 ft | 1 kts | 143° |
| 2026-05-06 08:55 | 21.66802 | 39.16884 | 36 ft | 9 kts | 144° |
| 2026-05-06 08:55 | 21.66712 | 39.16926 | 38 ft | 14 kts | 162° |
| 2026-05-06 08:55 | 21.66604 | 39.16965 | 39 ft | 15 kts | 160° |
| 2026-05-06 08:55 | 21.66485 | 39.17006 | 39 ft | 18 kts | 165° |
| 2026-05-06 08:56 | 21.66367 | 39.17017 | 40 ft | 18 kts | 192° |
| 2026-05-06 08:56 | 21.66291 | 39.16946 | 40 ft | 15 kts | 246° |
| 2026-05-06 08:56 | 21.66249 | 39.16826 | 40 ft | 21 kts | 252° |
| 2026-05-06 08:56 | 21.66202 | 39.16689 | 40 ft | 19 kts | 251° |
| 2026-05-06 08:57 | 21.66166 | 39.16579 | 38 ft | 0 kts | 249° |
| 2026-05-06 08:57 | 21.66166 | 39.16578 | 38 ft | 0 kts | 249° |
| 2026-05-06 08:58 | 21.66165 | 39.16576 | 38 ft | 3 kts | 249° |
| 2026-05-06 08:58 | 21.66162 | 39.16492 | 37 ft | 16 kts | 291° |
| 2026-05-06 08:58 | 21.66270 | 39.16426 | 37 ft | 26 kts | 342° |
| 2026-05-06 08:58 | 21.66541 | 39.16316 | 39 ft | 74 kts | 339° |
| 2026-05-06 08:59 | 21.67304 | 39.16016 | 35 ft | 158 kts | 339° |
| 2026-05-06 08:59 | 21.68429 | 39.15333 | 276 ft | 209 kts | 315° |
| 2026-05-06 08:59 | 21.69795 | 39.14546 | 875 ft | 245 kts | 346° |
| 2026-05-06 08:59 | 21.71601 | 39.14652 | 1846 ft | 276 kts | 16° |
| 2026-05-06 09:00 | 21.73441 | 39.15215 | 3196 ft | 269 kts | 16° |
| 2026-05-06 09:00 | 21.75260 | 39.15598 | 4146 ft | 266 kts | 4° |
| 2026-05-06 09:00 | 21.77033 | 39.15462 | 4996 ft | 241 kts | 347° |
| 2026-05-06 09:00 | 21.78550 | 39.14835 | 5595 ft | 234 kts | 333° |
| 2026-05-06 09:01 | 21.80018 | 39.13919 | 5941 ft | 258 kts | 328° |
| 2026-05-06 09:01 | 21.81604 | 39.12836 | 6345 ft | 280 kts | 327° |
| 2026-05-06 09:01 | 21.83241 | 39.11694 | 7022 ft | 287 kts | 326° |
| 2026-05-06 09:01 | 21.84938 | 39.10504 | 7724 ft | 296 kts | 325° |
| 2026-05-06 09:02 | 21.86675 | 39.09284 | 8518 ft | 301 kts | 324° |
| 2026-05-06 09:02 | 21.88437 | 39.08045 | 9427 ft | 304 kts | 325° |
| 2026-05-06 09:02 | 21.90286 | 39.06907 | 10229 ft | 311 kts | 331° |
| 2026-05-06 09:02 | 21.92313 | 39.05886 | 10617 ft | 333 kts | 334° |
| 2026-05-06 09:03 | 21.94500 | 39.04847 | 10960 ft | 354 kts | 334° |
| 2026-05-06 09:03 | 21.96798 | 39.03762 | 11497 ft | 365 kts | 334° |
| 2026-05-06 09:03 | 21.99100 | 39.02673 | 12296 ft | 367 kts | 334° |
| 2026-05-06 09:03 | 22.01450 | 39.01558 | 13118 ft | 371 kts | 333° |
| 2026-05-06 09:04 | 22.03829 | 39.00423 | 13853 ft | 377 kts | 333° |
| 2026-05-06 09:04 | 22.06241 | 38.99271 | 14556 ft | 381 kts | 333° |
| 2026-05-06 09:04 | 22.08673 | 38.98108 | 15305 ft | 384 kts | 333° |
| 2026-05-06 09:04 | 22.11122 | 38.96936 | 16051 ft | 387 kts | 333° |
| 2026-05-06 09:05 | 22.13658 | 38.95911 | 16795 ft | 394 kts | 344° |
| 2026-05-06 09:05 | 22.16414 | 38.95734 | 17514 ft | 403 kts | 6° |
| 2026-05-06 09:05 | 22.19104 | 38.96622 | 18222 ft | 409 kts | 27° |
| 2026-05-06 09:05 | 22.21374 | 38.98412 | 18818 ft | 413 kts | 43° |
| 2026-05-06 09:06 | 22.23432 | 39.00589 | 19395 ft | 417 kts | 45° |
| 2026-05-06 09:06 | 22.25508 | 39.02801 | 19971 ft | 421 kts | 44° |
| 2026-05-06 09:06 | 22.27632 | 39.05000 | 20544 ft | 426 kts | 45° |
| 2026-05-06 09:06 | 22.29539 | 39.07459 | 21117 ft | 429 kts | 59° |
| 2026-05-06 09:07 | 22.30732 | 39.10405 | 21664 ft | 430 kts | 76° |
| 2026-05-06 09:07 | 22.31473 | 39.13543 | 22191 ft | 434 kts | 79° |
| 2026-05-06 09:07 | 22.32142 | 39.16740 | 22697 ft | 439 kts | 79° |
| 2026-05-06 09:07 | 22.32808 | 39.19927 | 23213 ft | 443 kts | 79° |
| 2026-05-06 09:08 | 22.33499 | 39.23189 | 23686 ft | 448 kts | 79° |
| 2026-05-06 09:08 | 22.34206 | 39.26487 | 24094 ft | 453 kts | 79° |
| 2026-05-06 09:08 | 22.34923 | 39.29813 | 24499 ft | 458 kts | 78° |
| 2026-05-06 09:08 | 22.35651 | 39.33181 | 24908 ft | 462 kts | 78° |
| 2026-05-06 09:09 | 22.36386 | 39.36575 | 25286 ft | 466 kts | 78° |
| 2026-05-06 09:09 | 22.37128 | 39.40002 | 25689 ft | 471 kts | 78° |
| 2026-05-06 09:09 | 22.37877 | 39.43465 | 26092 ft | 475 kts | 78° |
| 2026-05-06 09:09 | 22.38631 | 39.46956 | 26478 ft | 480 kts | 78° |
| 2026-05-06 09:10 | 22.39382 | 39.50433 | 26859 ft | 484 kts | 78° |
| 2026-05-06 09:10 | 22.40149 | 39.53984 | 27256 ft | 488 kts | 78° |
| 2026-05-06 09:10 | 22.40924 | 39.57569 | 27622 ft | 492 kts | 78° |
| 2026-05-06 09:10 | 22.41704 | 39.61180 | 28031 ft | 495 kts | 79° |
| 2026-05-06 09:11 | 22.42488 | 39.64817 | 28400 ft | 499 kts | 79° |
| 2026-05-06 09:11 | 22.43278 | 39.68481 | 28787 ft | 503 kts | 79° |
| 2026-05-06 09:11 | 22.44074 | 39.72186 | 29005 ft | 510 kts | 79° |
| 2026-05-06 09:11 | 22.44883 | 39.75951 | 29183 ft | 518 kts | 79° |
| 2026-05-06 09:12 | 22.45963 | 39.79968 | 29354 ft | 528 kts | 69° |
| 2026-05-06 09:12 | 22.52219 | 39.88862 | 30002 ft | 540 kts | 36° |
| 2026-05-06 09:12 | 22.55113 | 39.91484 | 30209 ft | 546 kts | 39° |
| 2026-05-06 09:12 | 22.57969 | 39.94230 | 30346 ft | 552 kts | 40° |
| 2026-05-06 09:13 | 22.60828 | 39.97025 | 30598 ft | 555 kts | 40° |
| 2026-05-06 09:13 | 22.63687 | 39.99821 | 31015 ft | 553 kts | 40° |
| 2026-05-06 09:13 | 22.66544 | 40.02603 | 31394 ft | 553 kts | 39° |
| 2026-05-06 09:13 | 22.69410 | 40.05374 | 31773 ft | 552 kts | 39° |
| 2026-05-06 09:14 | 22.72287 | 40.08144 | 32023 ft | 556 kts | 39° |
| 2026-05-06 09:14 | 22.79417 | 40.14976 | 32067 ft | 571 kts | 39° |
| 2026-05-06 09:15 | 22.92840 | 40.27864 | 32065 ft | 573 kts | 39° |
| 2026-05-06 09:15 | 22.98795 | 40.33599 | 32056 ft | 572 kts | 39° |
| 2026-05-06 09:16 | 23.04742 | 40.39331 | 32045 ft | 572 kts | 39° |
| 2026-05-06 09:16 | 23.10644 | 40.45026 | 32051 ft | 572 kts | 39° |
| 2026-05-06 09:17 | 23.16598 | 40.50778 | 32037 ft | 573 kts | 39° |
| 2026-05-06 09:17 | 23.32607 | 40.67352 | 32037 ft | 577 kts | 58° |
| 2026-05-06 09:17 | 23.34312 | 40.71291 | 32034 ft | 575 kts | 73° |
| 2026-05-06 09:18 | 23.35212 | 40.75511 | 32039 ft | 572 kts | 84° |
| 2026-05-06 09:18 | 23.36428 | 40.84015 | 32037 ft | 574 kts | 81° |
| 2026-05-06 09:19 | 23.38451 | 40.92438 | 32026 ft | 576 kts | 74° |
| 2026-05-06 09:19 | 23.41153 | 41.00653 | 32043 ft | 576 kts | 70° |
| 2026-05-06 09:20 | 23.44056 | 41.08800 | 32041 ft | 577 kts | 70° |
| 2026-05-06 09:20 | 23.46916 | 41.16903 | 32039 ft | 577 kts | 70° |
| 2026-05-06 09:21 | 23.49744 | 41.25068 | 32039 ft | 576 kts | 71° |
| 2026-05-06 09:21 | 23.52546 | 41.33240 | 32037 ft | 575 kts | 71° |
| 2026-05-06 09:22 | 23.55338 | 41.41406 | 32040 ft | 575 kts | 71° |
| 2026-05-06 09:22 | 23.59832 | 41.54560 | 32035 ft | 574 kts | 71° |
| 2026-05-06 09:23 | 23.64209 | 41.67415 | 32033 ft | 573 kts | 71° |
| 2026-05-06 09:23 | 23.66980 | 41.75572 | 32035 ft | 574 kts | 71° |
| 2026-05-06 09:24 | 23.69651 | 41.83776 | 32033 ft | 574 kts | 72° |
| 2026-05-06 09:24 | 23.71813 | 41.90618 | 32032 ft | 574 kts | 72° |
| 2026-05-06 09:25 | 23.74843 | 42.00186 | 32019 ft | 574 kts | 72° |
| 2026-05-06 09:25 | 23.77599 | 42.08366 | 32032 ft | 574 kts | 71° |
| 2026-05-06 09:26 | 23.80417 | 42.16524 | 32029 ft | 574 kts | 70° |
| 2026-05-06 09:26 | 23.83222 | 42.24688 | 32031 ft | 574 kts | 70° |
| 2026-05-06 09:27 | 23.85540 | 42.31484 | 32032 ft | 574 kts | 71° |
| 2026-05-06 09:27 | 23.88765 | 42.40986 | 32029 ft | 574 kts | 71° |
| 2026-05-06 09:28 | 23.91537 | 42.49171 | 32029 ft | 575 kts | 71° |
| 2026-05-06 09:28 | 23.93839 | 42.55980 | 32026 ft | 575 kts | 71° |
| 2026-05-06 09:29 | 23.96608 | 42.64184 | 32020 ft | 575 kts | 71° |
| 2026-05-06 09:29 | 23.99368 | 42.72376 | 32025 ft | 573 kts | 71° |
| 2026-05-06 09:30 | 24.05308 | 42.90047 | 32025 ft | 575 kts | 71° |
| 2026-05-06 09:30 | 24.08005 | 42.98223 | 32024 ft | 575 kts | 71° |
| 2026-05-06 09:31 | 24.10704 | 43.06454 | 32025 ft | 574 kts | 71° |
| 2026-05-06 09:31 | 24.13395 | 43.14669 | 32027 ft | 574 kts | 72° |
| 2026-05-06 09:32 | 24.16092 | 43.22905 | 32010 ft | 575 kts | 72° |
| 2026-05-06 09:32 | 24.18767 | 43.31085 | 32029 ft | 574 kts | 72° |
| 2026-05-06 09:33 | 24.21451 | 43.39309 | 32029 ft | 573 kts | 72° |
| 2026-05-06 09:33 | 24.24127 | 43.47528 | 32033 ft | 572 kts | 72° |
| 2026-05-06 09:34 | 24.26797 | 43.55747 | 32026 ft | 573 kts | 72° |
| 2026-05-06 09:34 | 24.29464 | 43.63972 | 32023 ft | 572 kts | 72° |
| 2026-05-06 09:35 | 24.32106 | 43.72136 | 32023 ft | 572 kts | 72° |
| 2026-05-06 09:35 | 24.34758 | 43.80349 | 32027 ft | 572 kts | 72° |
| 2026-05-06 09:36 | 24.37408 | 43.88573 | 32019 ft | 572 kts | 72° |
| 2026-05-06 09:36 | 24.40054 | 43.96803 | 32020 ft | 572 kts | 72° |
| 2026-05-06 09:37 | 24.42677 | 44.04978 | 32015 ft | 572 kts | 72° |
| 2026-05-06 09:37 | 24.45034 | 44.13288 | 32031 ft | 569 kts | 80° |
| 2026-05-06 09:38 | 24.46666 | 44.21791 | 32021 ft | 570 kts | 81° |
| 2026-05-06 09:38 | 24.48149 | 44.30334 | 32020 ft | 570 kts | 82° |
| 2026-05-06 09:39 | 24.49593 | 44.38830 | 32021 ft | 570 kts | 82° |
| 2026-05-06 09:39 | 24.51056 | 44.47378 | 32017 ft | 569 kts | 81° |
| 2026-05-06 09:40 | 24.52526 | 44.55920 | 32025 ft | 569 kts | 81° |
| 2026-05-06 09:40 | 24.54728 | 44.68754 | 31985 ft | 569 kts | 81° |
| 2026-05-06 09:41 | 24.55454 | 44.72997 | 31448 ft | 563 kts | 81° |
| 2026-05-06 09:41 | 24.56162 | 44.77145 | 30997 ft | 555 kts | 82° |
| 2026-05-06 09:41 | 24.56864 | 44.81263 | 30754 ft | 542 kts | 82° |
| 2026-05-06 09:41 | 24.57548 | 44.85281 | 30521 ft | 529 kts | 82° |
| 2026-05-06 09:42 | 24.58216 | 44.89212 | 30225 ft | 519 kts | 82° |
| 2026-05-06 09:42 | 24.58872 | 44.93084 | 29786 ft | 512 kts | 82° |
| 2026-05-06 09:42 | 24.59518 | 44.96908 | 29271 ft | 506 kts | 82° |
| 2026-05-06 09:42 | 24.60155 | 45.00690 | 28733 ft | 501 kts | 82° |
| 2026-05-06 09:43 | 24.60785 | 45.04431 | 28257 ft | 495 kts | 82° |
| 2026-05-06 09:43 | 24.61399 | 45.08081 | 27766 ft | 490 kts | 82° |
| 2026-05-06 09:43 | 24.62013 | 45.11742 | 27268 ft | 485 kts | 82° |
| 2026-05-06 09:43 | 24.62620 | 45.15364 | 26780 ft | 479 kts | 83° |
| 2026-05-06 09:44 | 24.63220 | 45.18946 | 26312 ft | 474 kts | 83° |
| 2026-05-06 09:44 | 24.63812 | 45.22494 | 25811 ft | 470 kts | 83° |
| 2026-05-06 09:44 | 24.64400 | 45.26014 | 25320 ft | 466 kts | 83° |
| 2026-05-06 09:44 | 24.64980 | 45.29499 | 24859 ft | 461 kts | 83° |
| 2026-05-06 09:45 | 24.65554 | 45.32946 | 24388 ft | 457 kts | 83° |
| 2026-05-06 09:45 | 24.66114 | 45.36316 | 23936 ft | 452 kts | 83° |
| 2026-05-06 09:45 | 24.66676 | 45.39705 | 23454 ft | 448 kts | 83° |
| 2026-05-06 09:45 | 24.67232 | 45.43068 | 22882 ft | 445 kts | 83° |
| 2026-05-06 09:46 | 24.67783 | 45.46399 | 22331 ft | 441 kts | 83° |
| 2026-05-06 09:46 | 24.68328 | 45.49699 | 21817 ft | 437 kts | 83° |
| 2026-05-06 09:46 | 24.68865 | 45.52954 | 21516 ft | 427 kts | 83° |
| 2026-05-06 09:46 | 24.69388 | 45.56120 | 21316 ft | 415 kts | 83° |
| 2026-05-06 09:47 | 24.69888 | 45.59156 | 21128 ft | 404 kts | 82° |
| 2026-05-06 09:47 | 24.70381 | 45.62157 | 20952 ft | 393 kts | 82° |
| 2026-05-06 09:47 | 24.70860 | 45.65075 | 20732 ft | 384 kts | 82° |
| 2026-05-06 09:47 | 24.71258 | 45.67938 | 20220 ft | 374 kts | 88° |
| 2026-05-06 09:48 | 24.71454 | 45.72312 | 19101 ft | 367 kts | 91° |
| 2026-05-06 09:48 | 24.71532 | 45.75100 | 18392 ft | 363 kts | 90° |
| 2026-05-06 09:48 | 24.71616 | 45.77852 | 17675 ft | 357 kts | 90° |
| 2026-05-06 09:48 | 24.71702 | 45.80554 | 16992 ft | 350 kts | 90° |
| 2026-05-06 09:49 | 24.71786 | 45.83205 | 16306 ft | 344 kts | 90° |
| 2026-05-06 09:49 | 24.71867 | 45.85773 | 15635 ft | 338 kts | 90° |
| 2026-05-06 09:49 | 24.71948 | 45.88333 | 14973 ft | 332 kts | 90° |
| 2026-05-06 09:49 | 24.72028 | 45.90850 | 14319 ft | 327 kts | 91° |
| 2026-05-06 09:50 | 24.72105 | 45.93336 | 13783 ft | 325 kts | 91° |
| 2026-05-06 09:50 | 24.72182 | 45.95807 | 13400 ft | 322 kts | 91° |
| 2026-05-06 09:50 | 24.72257 | 45.98254 | 13066 ft | 319 kts | 91° |
| 2026-05-06 09:50 | 24.72332 | 46.00690 | 12966 ft | 318 kts | 91° |
| 2026-05-06 09:51 | 24.72406 | 46.03125 | 12955 ft | 319 kts | 91° |
| 2026-05-06 09:51 | 24.72479 | 46.05535 | 12843 ft | 320 kts | 90° |
| 2026-05-06 09:51 | 24.72670 | 46.11571 | 11780 ft | 318 kts | 91° |
| 2026-05-06 09:51 | 24.72745 | 46.14000 | 11392 ft | 317 kts | 90° |
| 2026-05-06 09:52 | 24.72834 | 46.16406 | 11086 ft | 313 kts | 90° |
| 2026-05-06 09:52 | 24.72929 | 46.18786 | 10974 ft | 311 kts | 90° |
| 2026-05-06 09:52 | 24.73024 | 46.21160 | 10958 ft | 311 kts | 90° |
| 2026-05-06 09:52 | 24.73118 | 46.23533 | 10966 ft | 310 kts | 91° |
| 2026-05-06 09:53 | 24.73183 | 46.25905 | 10969 ft | 310 kts | 91° |
| 2026-05-06 09:53 | 24.73236 | 46.28273 | 10962 ft | 310 kts | 91° |
| 2026-05-06 09:53 | 24.73287 | 46.30609 | 10953 ft | 310 kts | 91° |
| 2026-05-06 09:53 | 24.73338 | 46.32979 | 10965 ft | 310 kts | 92° |
| 2026-05-06 09:54 | 24.73390 | 46.35349 | 10961 ft | 310 kts | 92° |
| 2026-05-06 09:54 | 24.73442 | 46.37720 | 10959 ft | 310 kts | 91° |
| 2026-05-06 09:54 | 24.73687 | 46.40085 | 10954 ft | 314 kts | 76° |
| 2026-05-06 09:54 | 24.74574 | 46.42287 | 10960 ft | 316 kts | 63° |
| 2026-05-06 09:55 | 24.75671 | 46.44388 | 10960 ft | 317 kts | 61° |
| 2026-05-06 09:55 | 24.76794 | 46.46470 | 10962 ft | 316 kts | 61° |
| 2026-05-06 09:55 | 24.77900 | 46.48529 | 10959 ft | 317 kts | 61° |
| 2026-05-06 09:55 | 24.79015 | 46.50618 | 10962 ft | 317 kts | 61° |
| 2026-05-06 09:56 | 24.80123 | 46.52711 | 10961 ft | 317 kts | 62° |
| 2026-05-06 09:56 | 24.81230 | 46.54809 | 10961 ft | 317 kts | 62° |
| 2026-05-06 09:56 | 24.82334 | 46.56908 | 10962 ft | 317 kts | 62° |
| 2026-05-06 09:56 | 24.83374 | 46.58982 | 10951 ft | 301 kts | 69° |
| 2026-05-06 09:57 | 24.83776 | 46.61158 | 10957 ft | 286 kts | 98° |
| 2026-05-06 09:57 | 24.83179 | 46.63138 | 10965 ft | 274 kts | 128° |
| 2026-05-06 09:57 | 24.81822 | 46.64538 | 10967 ft | 267 kts | 150° |
| 2026-05-06 09:57 | 24.80229 | 46.65588 | 10965 ft | 267 kts | 154° |
| 2026-05-06 09:58 | 24.78602 | 46.66582 | 10956 ft | 268 kts | 154° |
| 2026-05-06 09:58 | 24.76972 | 46.67581 | 10962 ft | 268 kts | 154° |
| 2026-05-06 09:58 | 24.75345 | 46.68587 | 10957 ft | 268 kts | 154° |
| 2026-05-06 09:58 | 24.73722 | 46.69599 | 10923 ft | 268 kts | 154° |
| 2026-05-06 09:59 | 24.72090 | 46.70620 | 10568 ft | 270 kts | 154° |
| 2026-05-06 09:59 | 24.70490 | 46.71626 | 10287 ft | 267 kts | 154° |
| 2026-05-06 09:59 | 24.68888 | 46.72636 | 10003 ft | 264 kts | 154° |
| 2026-05-06 09:59 | 24.67298 | 46.73637 | 9696 ft | 262 kts | 154° |
| 2026-05-06 10:00 | 24.65722 | 46.74630 | 9370 ft | 260 kts | 154° |
| 2026-05-06 10:00 | 24.64155 | 46.75613 | 9066 ft | 258 kts | 154° |
| 2026-05-06 10:00 | 24.62570 | 46.76605 | 8966 ft | 270 kts | 154° |
| 2026-05-06 10:00 | 24.60910 | 46.77644 | 8960 ft | 277 kts | 154° |
| 2026-05-06 10:01 | 24.59248 | 46.78690 | 8953 ft | 273 kts | 154° |
| 2026-05-06 10:01 | 24.57644 | 46.79703 | 8962 ft | 267 kts | 154° |
| 2026-05-06 10:01 | 24.56045 | 46.80718 | 8967 ft | 265 kts | 152° |
| 2026-05-06 10:01 | 24.54586 | 46.81980 | 8671 ft | 270 kts | 138° |
| 2026-05-06 10:02 | 24.53567 | 46.83720 | 8269 ft | 273 kts | 115° |
| 2026-05-06 10:02 | 24.53304 | 46.85749 | 8053 ft | 268 kts | 89° |
| 2026-05-06 10:02 | 24.53858 | 46.87680 | 7767 ft | 267 kts | 61° |
| 2026-05-06 10:02 | 24.55224 | 46.89041 | 7418 ft | 268 kts | 29° |
| 2026-05-06 10:03 | 24.56919 | 46.89882 | 7090 ft | 267 kts | 22° |
| 2026-05-06 10:03 | 24.58655 | 46.90514 | 6956 ft | 267 kts | 11° |
| 2026-05-06 10:03 | 24.60500 | 46.90537 | 6956 ft | 265 kts | 347° |
| 2026-05-06 10:03 | 24.62203 | 46.89826 | 6953 ft | 261 kts | 329° |
| 2026-05-06 10:04 | 24.63780 | 46.88839 | 6903 ft | 260 kts | 326° |
| 2026-05-06 10:04 | 24.65326 | 46.87795 | 6523 ft | 261 kts | 325° |
| 2026-05-06 10:04 | 24.66860 | 46.86745 | 6189 ft | 259 kts | 324° |
| 2026-05-06 10:04 | 24.68379 | 46.85703 | 5989 ft | 256 kts | 326° |
| 2026-05-06 10:05 | 24.69927 | 46.84730 | 5963 ft | 257 kts | 334° |
| 2026-05-06 10:05 | 24.71591 | 46.84029 | 5967 ft | 257 kts | 339° |
| 2026-05-06 10:05 | 24.73264 | 46.83421 | 5973 ft | 256 kts | 340° |
| 2026-05-06 10:05 | 24.74962 | 46.82819 | 5978 ft | 256 kts | 341° |
| 2026-05-06 10:06 | 24.76603 | 46.82238 | 5971 ft | 239 kts | 340° |
| 2026-05-06 10:06 | 24.78144 | 46.81692 | 5984 ft | 230 kts | 340° |
| 2026-05-06 10:06 | 24.79661 | 46.81149 | 5759 ft | 230 kts | 340° |
| 2026-05-06 10:06 | 24.81162 | 46.80562 | 5382 ft | 228 kts | 333° |
| 2026-05-06 10:07 | 24.82577 | 46.79786 | 5078 ft | 225 kts | 330° |
| 2026-05-06 10:07 | 24.83891 | 46.78943 | 4989 ft | 211 kts | 329° |
| 2026-05-06 10:07 | 24.85119 | 46.78152 | 4872 ft | 200 kts | 330° |
| 2026-05-06 10:07 | 24.86292 | 46.77419 | 4601 ft | 195 kts | 332° |
| 2026-05-06 10:08 | 24.87524 | 46.76659 | 3977 ft | 209 kts | 333° |
| 2026-05-06 10:08 | 24.88739 | 46.75889 | 3734 ft | 194 kts | 333° |
| 2026-05-06 10:08 | 24.89868 | 46.75151 | 3460 ft | 185 kts | 334° |
| 2026-05-06 10:08 | 24.90936 | 46.74432 | 3120 ft | 175 kts | 335° |
| 2026-05-06 10:09 | 24.91973 | 46.73786 | 2741 ft | 169 kts | 338° |
| 2026-05-06 10:09 | 24.92985 | 46.73171 | 2412 ft | 162 kts | 334° |
| 2026-05-06 10:09 | 24.93928 | 46.72577 | 2198 ft | 151 kts | 332° |
| 2026-05-06 10:09 | 24.94812 | 46.72019 | 2052 ft | 142 kts | 331° |
| 2026-05-06 10:10 | 24.95556 | 46.71548 | 2044 ft | 88 kts | 331° |
| 2026-05-06 10:10 | 24.95861 | 46.71355 | 2041 ft | 29 kts | 324° |
| 2026-05-06 10:10 | 24.95981 | 46.71204 | 2042 ft | 16 kts | 303° |
| 2026-05-06 10:10 | 24.96006 | 46.71107 | 2039 ft | 8 kts | 271° |
| 2026-05-06 10:11 | 24.96005 | 46.71089 | 2034 ft | 0 kts | 266° |